Weather History for Ravenna, OH

Change the Weather History Date:

Monday, January 21, 2013

  Actual Average (KCAK) Record (KCAK)
Temperature  
Mean Temperature 14 °F 26 °F  
Max Temperature 20 °F 33 °F 69 °F (1906)
Min Temperature 9 °F 19 °F -24 °F (1985)
Degree Days  
Heating Degree Days 50 39  
Month to date heating degree days 817  
Since 1 July heating degree days 3147  
Cooling Degree Days 0 0  
Month to date cooling degree days 0  
Year to date cooling degree days 0  
Moisture  
Dew Point 8 °F    
Average Humidity 67    
Maximum Humidity 83    
Minimum Humidity 54    
Precipitation  
Precipitation 0.00 in 0.09 in 2.83 in (1959)
Month to date precipitation 1.80  
Year to date precipitation 1.80  
Snow  
Snow 0.00 in 0.40 in - ()
Month to date snowfall 8.4  
Since 1 July snowfall 22.0  
Snow Depth -    
Sea Level Pressure  
Sea Level Pressure 29.99 in    
Wind  
Wind Speed 10 mph (WSW)    
Max Wind Speed 23 mph    
Max Gust Speed 28 mph    
Visibility 8 miles    
Events Snow    
T = Trace of Precipitation, MM = Missing Value Source: NWS Daily Summary

Daily Weather History Graph

Daily Weather History Graph

Search for Another Location

Airport:

Trip Planner

Search our weather history database for the weather conditions in past years. The results will help you decide how hot, cold, wet, or windy it might be!

Date:

Astronomy

Jan. 21, 2013 Rise Set
Actual Time 7:44 AM EST 5:28 PM EST
Civil Twilight 7:14 AM EST 5:58 PM EST
Nautical Twilight 6:41 AM EST 6:31 PM EST
Astronomical Twilight 6:08 AM EST 7:04 PM EST
Moon 1:07 PM EST (1/21) 3:11 AM EST (1/21)
Length of Visible Light 10h 43m
Length of Day
9h 43m
Waxing Gibbous, 75% of the Moon is Illuminated
Jan 21
Waxing Gibbous
Jan 26
Full
Feb 3
Last Quarter
Feb 10
New
Feb 17
First Quarter

Hourly Weather History & Observations

Time (EST) Temp. Windchill Dew Point Humidity Pressure Visibility Wind Dir Wind Speed Gust Speed Precip Events Conditions
12:05 AM 19.4 °F 7.2 °F 8.6 °F 63% 30.10 in 10.0 mi West 11.5 mph - N/A   Overcast
12:25 AM 19.4 °F 8.6 °F 8.6 °F 63% 30.09 in 10.0 mi WSW 9.2 mph 16.1 mph N/A   Mostly Cloudy
12:45 AM 19.4 °F 12.8 °F 8.6 °F 63% 30.08 in 10.0 mi WSW 4.6 mph - N/A   Overcast
1:05 AM 19.4 °F 12.8 °F 10.4 °F 68% 30.07 in 10.0 mi WSW 4.6 mph - N/A   Unknown
1:25 AM 19.4 °F 14.3 °F 10.4 °F 68% 30.07 in 10.0 mi WSW 3.5 mph - N/A   Unknown
1:45 AM 19.4 °F 10.4 °F 8.6 °F 63% 30.07 in 10.0 mi WSW 6.9 mph - N/A   Overcast
2:05 AM 19.4 °F 10.4 °F 8.6 °F 63% 30.06 in 10.0 mi WSW 6.9 mph - N/A   Overcast
2:25 AM 19.4 °F 8.6 °F 8.6 °F 63% 30.06 in 10.0 mi WSW 9.2 mph - N/A   Overcast
2:45 AM 19.4 °F 10.4 °F 8.6 °F 63% 30.06 in 10.0 mi WSW 6.9 mph - N/A   Overcast
3:05 AM 19.4 °F 11.5 °F 8.6 °F 63% 30.05 in 10.0 mi WSW 5.8 mph - N/A   Unknown
3:25 AM 19.4 °F 9.5 °F 8.6 °F 63% 30.05 in 10.0 mi SW 8.1 mph - N/A   Unknown
3:45 AM 19.4 °F 7.9 °F 8.6 °F 63% 30.04 in 10.0 mi WSW 10.4 mph - N/A   Overcast
4:05 AM 19.4 °F 7.9 °F 8.6 °F 63% 30.03 in 10.0 mi WSW 10.4 mph - N/A   Overcast
4:25 AM 19.4 °F 9.5 °F 8.6 °F 63% 30.03 in 10.0 mi WSW 8.1 mph - N/A   Unknown
4:45 AM 19.4 °F 8.6 °F 8.6 °F 63% 30.02 in 10.0 mi WSW 9.2 mph - N/A   Unknown
5:05 AM 19.4 °F 7.9 °F 8.6 °F 63% 30.02 in 10.0 mi West 10.4 mph - N/A   Overcast
5:25 AM 19.4 °F 8.6 °F 8.6 °F 63% 30.01 in 10.0 mi WSW 9.2 mph - N/A   Overcast
5:45 AM 19.4 °F 11.5 °F 8.6 °F 63% 30.01 in 10.0 mi WSW 5.8 mph - N/A   Unknown
6:05 AM 19.4 °F 10.4 °F 6.8 °F 58% 30.00 in 10.0 mi WSW 6.9 mph - N/A   Unknown
6:25 AM 17.6 °F 7.3 °F 6.8 °F 63% 30.00 in 10.0 mi WSW 8.1 mph - N/A   Overcast
6:45 AM 17.6 °F 6.4 °F 6.8 °F 63% 30.00 in 10.0 mi WSW 9.2 mph - N/A   Overcast
7:05 AM 17.6 °F 7.3 °F 8.6 °F 68% 30.00 in 10.0 mi WSW 8.1 mph - N/A   Unknown
7:45 AM 17.6 °F - 8.6 °F 68% 29.99 in 10.0 mi Calm Calm - N/A   Overcast
8:05 AM 17.6 °F 8.2 °F 6.8 °F 63% 29.98 in 10.0 mi SW 6.9 mph - N/A   Overcast
8:25 AM 17.6 °F 7.3 °F 8.6 °F 68% 29.98 in 10.0 mi WSW 8.1 mph - N/A   Overcast
8:55 AM 18.9 °F 10.8 °F 8.6 °F 64% 29.98 in 10.0 mi WSW 5.8 mph - N/A   Overcast
8:56 AM 18.9 °F 10.8 °F 8.4 °F 64% 29.98 in 10.0 mi WSW 5.8 mph - N/A   Overcast
9:15 AM 18.9 °F 7.2 °F 8.2 °F 63% 29.98 in 10.0 mi WSW 10.4 mph - N/A   Overcast
9:35 AM 18.9 °F 7.2 °F 8.6 °F 64% 29.98 in 10.0 mi WSW 10.4 mph - N/A   Overcast
9:55 AM 19.4 °F 8.6 °F 8.4 °F 62% 29.97 in 10.0 mi West 9.2 mph - N/A   Overcast
10:15 AM 19.6 °F 8.9 °F 8.4 °F 62% 29.97 in 10.0 mi West 9.2 mph - N/A   Overcast
10:35 AM 19.4 °F 8.6 °F 9.1 °F 64% 29.96 in 10.0 mi WSW 9.2 mph - N/A Snow Light Snow
10:55 AM 19.9 °F 8.6 °F 9.7 °F 64% 29.96 in 10.0 mi West 10.4 mph - N/A   Overcast
11:15 AM 19.2 °F 10.2 °F 10.8 °F 70% 29.95 in 5.0 mi West 6.9 mph - N/A Snow Light Snow
11:35 AM 19.4 °F 9.5 °F 11.3 °F 71% 29.94 in 7.0 mi West 8.1 mph - N/A Snow Light Snow
11:55 AM 19.4 °F 11.5 °F 11.8 °F 72% 29.93 in 5.0 mi WSW 5.8 mph - N/A Snow Light Snow
12:15 PM 19.6 °F 9.7 °F 12.9 °F 75% 29.91 in 2.5 mi SW 8.1 mph - N/A Snow Light Snow
12:35 PM 20.7 °F 9.5 °F 13.5 °F 74% 29.90 in 7.0 mi West 10.4 mph - N/A Snow Light Snow
12:56 PM 18.9 °F 3.3 °F 14.2 °F 82% 29.89 in 0.2 mi West 18.4 mph 25.3 mph N/A Snow Snow
1:15 PM 19.9 °F 7.9 °F 13.5 °F 76% 29.89 in 5.0 mi WSW 11.5 mph 17.3 mph N/A Snow Light Snow
1:35 PM 20.8 °F 8.4 °F 10.6 °F 65% 29.89 in 10.0 mi West 12.7 mph 20.7 mph N/A   Overcast
1:56 PM 20.3 °F 5.7 °F 6.1 °F 54% 29.90 in 10.0 mi WSW 17.3 mph 24.2 mph N/A   Overcast
2:15 PM 20.3 °F 3.7 °F 6.3 °F 55% 29.90 in 10.0 mi West 23.0 mph 27.6 mph N/A   Overcast
2:35 PM 20.7 °F 7.6 °F 8.1 °F 58% 29.90 in 10.0 mi WSW 13.8 mph 21.9 mph N/A   Overcast
2:55 PM 19.9 °F 6.2 °F 8.1 °F 60% 29.90 in 10.0 mi West 15.0 mph 20.7 mph N/A   Overcast
3:15 PM 18.9 °F 7.2 °F 12.0 °F 75% 29.91 in 3.0 mi West 10.4 mph 18.4 mph N/A Snow Light Snow
3:35 PM 17.2 °F 3.3 °F 12.9 °F 83% 29.92 in 0.2 mi WSW 13.8 mph 24.2 mph N/A Snow Light Snow
3:55 PM 17.8 °F 4.6 °F 12.9 °F 81% 29.92 in 2.5 mi West 12.7 mph 18.4 mph N/A Snow Light Snow
4:15 PM 17.2 °F 2.2 °F 10.9 °F 76% 29.94 in 1.8 mi West 16.1 mph 25.3 mph N/A Snow Light Snow
4:35 PM 15.8 °F -0.2 °F 9.7 °F 77% 29.94 in 2.0 mi West 17.3 mph 25.3 mph N/A Snow Light Snow
4:55 PM 16.5 °F 2.4 °F 4.5 °F 59% 29.95 in 10.0 mi WSW 13.8 mph 20.7 mph N/A   Mostly Cloudy
5:15 PM 16.0 °F 0.1 °F 4.1 °F 60% 29.95 in 10.0 mi West 17.3 mph 24.2 mph N/A   Mostly Cloudy
5:35 PM 15.3 °F -0.9 °F 2.5 °F 57% 29.96 in 10.0 mi West 17.3 mph 25.3 mph N/A   Scattered Clouds
5:56 PM 14.5 °F 0.5 °F 4.5 °F 64% 29.97 in 10.0 mi West 12.7 mph 23.0 mph N/A   Unknown
6:15 PM 14.2 °F 4.1 °F 5.5 °F 69% 29.97 in 10.0 mi WSW 6.9 mph - N/A   Unknown
6:35 PM 14.0 °F -0.2 °F 3.2 °F 62% 29.98 in 10.0 mi West 12.7 mph 23.0 mph N/A   Unknown
6:55 PM 14.0 °F -0.2 °F 4.1 °F 65% 29.98 in 10.0 mi West 12.7 mph 21.9 mph N/A   Unknown
7:15 PM 13.5 °F 0.5 °F 4.1 °F 66% 29.98 in 10.0 mi WSW 10.4 mph 21.9 mph N/A   Unknown
7:55 PM 12.7 °F -1.1 °F 5.4 °F 72% 29.98 in 10.0 mi WSW 11.5 mph 18.4 mph N/A   Unknown
8:15 PM 12.7 °F -1.1 °F 4.1 °F 68% 29.98 in 10.0 mi WSW 11.5 mph 17.3 mph N/A   Scattered Clouds
8:35 PM 12.9 °F -3.9 °F 3.2 °F 65% 29.98 in 10.0 mi WSW 17.3 mph 24.2 mph N/A   Unknown
8:56 PM 12.4 °F -4.1 °F 3.0 °F 66% 29.99 in 10.0 mi WSW 16.1 mph 19.6 mph N/A   Unknown
9:15 PM 12.2 °F -3.1 °F 6.8 °F 79% 30.00 in 1.8 mi WSW 13.8 mph 21.9 mph N/A Snow Light Snow
9:35 PM 12.0 °F -4.5 °F 6.6 °F 79% 30.00 in 3.0 mi West 16.1 mph 24.2 mph N/A Snow Light Snow
9:55 PM 11.8 °F -5.3 °F 6.6 °F 80% 30.00 in 3.0 mi West 17.3 mph 21.9 mph N/A Snow Light Snow
10:15 PM 11.1 °F -3.9 °F 5.9 °F 80% 30.00 in 5.0 mi West 12.7 mph 24.2 mph N/A Snow Light Snow
10:35 PM 10.4 °F -4.8 °F 4.1 °F 76% 30.01 in 10.0 mi West 12.7 mph 21.9 mph N/A   Scattered Clouds
10:55 PM 10.2 °F -8.4 °F 3.0 °F 73% 30.02 in 10.0 mi West 19.6 mph 26.5 mph N/A   Mostly Cloudy
11:15 PM 9.5 °F -9.8 °F 1.8 °F 71% 30.03 in 10.0 mi West 20.7 mph 25.3 mph N/A   Scattered Clouds
11:35 PM 9.3 °F -6.8 °F -1.3 °F 62% 30.03 in 10.0 mi West 13.8 mph 21.9 mph N/A   Clear
11:55 PM 9.0 °F -5.9 °F -1.5 °F 63% 30.03 in 10.0 mi West 11.5 mph 18.4 mph N/A   Clear